sensor_id;sensor_type;location;lat;lon;timestamp;P1;durP1;ratioP1;P2;durP2;ratioP2
40695;SDS011;40425;51.102;17.208;2023-02-12T00:03:03;36.10;;;20.40;;
40695;SDS011;40425;51.102;17.208;2023-02-12T00:08:04;34.50;;;21.80;;
40695;SDS011;40425;51.102;17.208;2023-02-12T00:13:05;40.90;;;20.40;;
40695;SDS011;40425;51.102;17.208;2023-02-12T00:18:06;37.47;;;21.23;;
40695;SDS011;40425;51.102;17.208;2023-02-12T00:23:08;38.27;;;21.17;;
40695;SDS011;40425;51.102;17.208;2023-02-12T00:28:10;36.57;;;20.90;;
40695;SDS011;40425;51.102;17.208;2023-02-12T00:33:11;38.77;;;20.07;;
40695;SDS011;40425;51.102;17.208;2023-02-12T00:38:12;39.20;;;22.10;;
40695;SDS011;40425;51.102;17.208;2023-02-12T00:43:13;33.17;;;19.03;;
40695;SDS011;40425;51.102;17.208;2023-02-12T00:48:14;35.23;;;19.83;;
40695;SDS011;40425;51.102;17.208;2023-02-12T00:53:15;33.73;;;19.47;;
40695;SDS011;40425;51.102;17.208;2023-02-12T00:58:16;37.63;;;18.80;;
40695;SDS011;40425;51.102;17.208;2023-02-12T01:03:17;38.27;;;19.33;;
40695;SDS011;40425;51.102;17.208;2023-02-12T01:08:19;34.80;;;19.30;;
40695;SDS011;40425;51.102;17.208;2023-02-12T01:13:20;33.63;;;21.67;;
40695;SDS011;40425;51.102;17.208;2023-02-12T01:18:21;32.93;;;18.83;;
40695;SDS011;40425;51.102;17.208;2023-02-12T01:23:22;35.83;;;20.67;;
40695;SDS011;40425;51.102;17.208;2023-02-12T01:28:23;41.57;;;21.63;;
40695;SDS011;40425;51.102;17.208;2023-02-12T01:33:23;36.43;;;21.63;;
40695;SDS011;40425;51.102;17.208;2023-02-12T01:38:24;38.77;;;20.67;;
40695;SDS011;40425;51.102;17.208;2023-02-12T01:43:25;34.23;;;20.53;;
40695;SDS011;40425;51.102;17.208;2023-02-12T01:48:27;35.13;;;19.87;;
40695;SDS011;40425;51.102;17.208;2023-02-12T01:53:35;44.63;;;20.60;;
40695;SDS011;40425;51.102;17.208;2023-02-12T01:58:43;35.10;;;20.37;;
40695;SDS011;40425;51.102;17.208;2023-02-12T02:03:46;40.80;;;20.37;;
40695;SDS011;40425;51.102;17.208;2023-02-12T02:08:49;34.80;;;18.77;;
40695;SDS011;40425;51.102;17.208;2023-02-12T02:13:50;38.13;;;19.57;;
40695;SDS011;40425;51.102;17.208;2023-02-12T02:19:19;37.13;;;17.75;;
40695;SDS011;40425;51.102;17.208;2023-02-12T02:30:02;39.97;;;18.97;;
40695;SDS011;40425;51.102;17.208;2023-02-12T02:35:18;38.17;;;17.50;;
40695;SDS011;40425;51.102;17.208;2023-02-12T02:40:26;41.67;;;18.93;;
40695;SDS011;40425;51.102;17.208;2023-02-12T02:45:35;36.77;;;17.60;;
40695;SDS011;40425;51.102;17.208;2023-02-12T02:50:55;33.77;;;17.27;;
40695;SDS011;40425;51.102;17.208;2023-02-12T02:56:01;34.97;;;16.95;;
40695;SDS011;40425;51.102;17.208;2023-02-12T03:06:25;28.20;;;15.47;;
40695;SDS011;40425;51.102;17.208;2023-02-12T03:11:39;30.40;;;15.53;;
40695;SDS011;40425;51.102;17.208;2023-02-12T03:16:43;32.63;;;15.40;;
40695;SDS011;40425;51.102;17.208;2023-02-12T03:22:03;31.90;;;14.10;;
40695;SDS011;40425;51.102;17.208;2023-02-12T03:27:08;35.90;;;13.97;;
40695;SDS011;40425;51.102;17.208;2023-02-12T03:37:57;43.07;;;14.97;;
40695;SDS011;40425;51.102;17.208;2023-02-12T03:49:17;39.57;;;13.10;;
40695;SDS011;40425;51.102;17.208;2023-02-12T03:54:04;43.97;;;16.52;;
40695;SDS011;40425;51.102;17.208;2023-02-12T03:59:06;30.07;;;14.13;;
40695;SDS011;40425;51.102;17.208;2023-02-12T04:04:08;35.87;;;14.87;;
40695;SDS011;40425;51.102;17.208;2023-02-12T04:09:09;36.20;;;14.80;;
40695;SDS011;40425;51.102;17.208;2023-02-12T04:14:26;34.23;;;16.43;;
40695;SDS011;40425;51.102;17.208;2023-02-12T04:30:11;44.37;;;16.17;;
40695;SDS011;40425;51.102;17.208;2023-02-12T04:40:24;38.77;;;16.73;;
40695;SDS011;40425;51.102;17.208;2023-02-12T04:45:27;40.77;;;16.80;;
40695;SDS011;40425;51.102;17.208;2023-02-12T04:50:36;41.20;;;16.40;;
40695;SDS011;40425;51.102;17.208;2023-02-12T04:55:39;53.57;;;17.00;;
40695;SDS011;40425;51.102;17.208;2023-02-12T05:00:40;39.73;;;16.50;;
40695;SDS011;40425;51.102;17.208;2023-02-12T05:05:41;49.47;;;17.63;;
40695;SDS011;40425;51.102;17.208;2023-02-12T05:10:41;49.80;;;18.23;;
40695;SDS011;40425;51.102;17.208;2023-02-12T05:15:42;58.07;;;17.87;;
40695;SDS011;40425;51.102;17.208;2023-02-12T05:20:43;51.63;;;19.03;;
40695;SDS011;40425;51.102;17.208;2023-02-12T05:25:44;59.03;;;18.40;;
40695;SDS011;40425;51.102;17.208;2023-02-12T05:30:45;48.30;;;17.40;;
40695;SDS011;40425;51.102;17.208;2023-02-12T05:35:45;51.93;;;18.83;;
40695;SDS011;40425;51.102;17.208;2023-02-12T05:40:46;42.70;;;17.63;;
40695;SDS011;40425;51.102;17.208;2023-02-12T05:45:47;52.97;;;17.73;;
40695;SDS011;40425;51.102;17.208;2023-02-12T05:50:48;48.17;;;18.93;;
40695;SDS011;40425;51.102;17.208;2023-02-12T05:55:49;51.63;;;18.37;;
40695;SDS011;40425;51.102;17.208;2023-02-12T06:00:50;65.07;;;20.23;;
40695;SDS011;40425;51.102;17.208;2023-02-12T06:05:51;55.37;;;19.07;;
40695;SDS011;40425;51.102;17.208;2023-02-12T06:10:52;49.77;;;18.97;;
40695;SDS011;40425;51.102;17.208;2023-02-12T06:15:52;59.07;;;19.60;;
40695;SDS011;40425;51.102;17.208;2023-02-12T06:20:53;52.40;;;17.53;;
40695;SDS011;40425;51.102;17.208;2023-02-12T06:25:55;47.40;;;18.40;;
40695;SDS011;40425;51.102;17.208;2023-02-12T06:30:56;49.47;;;17.70;;
40695;SDS011;40425;51.102;17.208;2023-02-12T06:35:57;53.17;;;19.03;;
40695;SDS011;40425;51.102;17.208;2023-02-12T06:41:02;55.30;;;19.27;;
40695;SDS011;40425;51.102;17.208;2023-02-12T06:46:03;50.80;;;20.90;;
40695;SDS011;40425;51.102;17.208;2023-02-12T06:51:06;49.37;;;19.03;;
40695;SDS011;40425;51.102;17.208;2023-02-12T06:56:12;46.87;;;16.30;;
40695;SDS011;40425;51.102;17.208;2023-02-12T07:01:17;51.57;;;18.20;;
40695;SDS011;40425;51.102;17.208;2023-02-12T07:06:21;53.53;;;17.97;;
40695;SDS011;40425;51.102;17.208;2023-02-12T07:11:26;46.27;;;16.30;;
40695;SDS011;40425;51.102;17.208;2023-02-12T07:16:31;45.90;;;17.30;;
40695;SDS011;40425;51.102;17.208;2023-02-12T07:21:32;49.60;;;16.70;;
40695;SDS011;40425;51.102;17.208;2023-02-12T07:26:33;45.10;;;17.47;;
40695;SDS011;40425;51.102;17.208;2023-02-12T07:31:34;50.97;;;17.57;;
40695;SDS011;40425;51.102;17.208;2023-02-12T07:36:35;38.57;;;14.97;;
40695;SDS011;40425;51.102;17.208;2023-02-12T07:41:36;44.83;;;16.73;;
40695;SDS011;40425;51.102;17.208;2023-02-12T07:46:44;33.93;;;16.37;;
40695;SDS011;40425;51.102;17.208;2023-02-12T07:51:47;50.63;;;15.67;;
40695;SDS011;40425;51.102;17.208;2023-02-12T07:56:48;47.73;;;16.23;;
40695;SDS011;40425;51.102;17.208;2023-02-12T08:01:51;48.33;;;16.97;;
40695;SDS011;40425;51.102;17.208;2023-02-12T08:06:53;38.80;;;16.07;;
40695;SDS011;40425;51.102;17.208;2023-02-12T08:11:55;41.07;;;16.80;;
40695;SDS011;40425;51.102;17.208;2023-02-12T08:16:56;36.70;;;15.43;;
40695;SDS011;40425;51.102;17.208;2023-02-12T08:21:57;42.40;;;16.03;;
40695;SDS011;40425;51.102;17.208;2023-02-12T08:26:58;41.00;;;15.30;;
40695;SDS011;40425;51.102;17.208;2023-02-12T08:32:00;35.37;;;15.17;;
40695;SDS011;40425;51.102;17.208;2023-02-12T08:37:03;32.63;;;14.00;;
40695;SDS011;40425;51.102;17.208;2023-02-12T08:42:05;38.40;;;13.97;;
40695;SDS011;40425;51.102;17.208;2023-02-12T08:47:06;34.33;;;13.87;;
40695;SDS011;40425;51.102;17.208;2023-02-12T08:52:09;39.07;;;14.53;;
40695;SDS011;40425;51.102;17.208;2023-02-12T08:57:09;37.57;;;13.80;;
40695;SDS011;40425;51.102;17.208;2023-02-12T09:02:10;28.83;;;11.40;;
40695;SDS011;40425;51.102;17.208;2023-02-12T09:07:11;36.27;;;10.93;;
40695;SDS011;40425;51.102;17.208;2023-02-12T09:12:12;34.93;;;13.40;;
40695;SDS011;40425;51.102;17.208;2023-02-12T09:17:13;30.23;;;11.20;;
40695;SDS011;40425;51.102;17.208;2023-02-12T09:22:14;27.27;;;11.63;;
40695;SDS011;40425;51.102;17.208;2023-02-12T09:27:14;26.77;;;10.60;;
40695;SDS011;40425;51.102;17.208;2023-02-12T09:32:15;21.73;;;8.47;;
40695;SDS011;40425;51.102;17.208;2023-02-12T09:37:16;27.13;;;10.70;;
40695;SDS011;40425;51.102;17.208;2023-02-12T09:42:24;23.30;;;7.23;;
40695;SDS011;40425;51.102;17.208;2023-02-12T09:52:31;20.20;;;7.03;;
40695;SDS011;40425;51.102;17.208;2023-02-12T09:57:35;26.57;;;12.57;;
40695;SDS011;40425;51.102;17.208;2023-02-12T10:02:37;24.27;;;9.20;;
40695;SDS011;40425;51.102;17.208;2023-02-12T10:12:54;30.60;;;11.33;;
40695;SDS011;40425;51.102;17.208;2023-02-12T10:24:19;24.30;;;9.17;;
40695;SDS011;40425;51.102;17.208;2023-02-12T10:29:26;26.77;;;8.00;;
40695;SDS011;40425;51.102;17.208;2023-02-12T10:34:33;35.37;;;9.40;;
40695;SDS011;40425;51.102;17.208;2023-02-12T10:39:36;25.73;;;8.93;;
40695;SDS011;40425;51.102;17.208;2023-02-12T10:44:47;26.47;;;10.80;;
40695;SDS011;40425;51.102;17.208;2023-02-12T10:49:50;21.97;;;8.30;;
40695;SDS011;40425;51.102;17.208;2023-02-12T10:54:56;24.63;;;9.03;;
40695;SDS011;40425;51.102;17.208;2023-02-12T11:00:14;22.37;;;8.03;;
40695;SDS011;40425;51.102;17.208;2023-02-12T11:05:24;24.47;;;7.57;;
40695;SDS011;40425;51.102;17.208;2023-02-12T11:10:32;31.17;;;9.43;;
40695;SDS011;40425;51.102;17.208;2023-02-12T11:15:47;21.45;;;7.60;;
40695;SDS011;40425;51.102;17.208;2023-02-12T11:20:50;23.00;;;7.97;;
40695;SDS011;40425;51.102;17.208;2023-02-12T11:26:00;18.57;;;7.57;;
40695;SDS011;40425;51.102;17.208;2023-02-12T11:36:18;17.70;;;7.27;;
40695;SDS011;40425;51.102;17.208;2023-02-12T11:46:44;20.43;;;6.77;;
40695;SDS011;40425;51.102;17.208;2023-02-12T11:51:53;19.60;;;6.63;;
40695;SDS011;40425;51.102;17.208;2023-02-12T11:56:55;20.30;;;8.23;;
40695;SDS011;40425;51.102;17.208;2023-02-12T12:01:58;20.00;;;8.07;;
40695;SDS011;40425;51.102;17.208;2023-02-12T12:07:16;19.40;;;6.13;;
40695;SDS011;40425;51.102;17.208;2023-02-12T12:12:22;15.40;;;5.17;;
40695;SDS011;40425;51.102;17.208;2023-02-12T12:17:46;16.33;;;5.17;;
40695;SDS011;40425;51.102;17.208;2023-02-12T12:23:14;14.30;;;4.27;;
40695;SDS011;40425;51.102;17.208;2023-02-12T12:34:11;15.70;;;5.32;;
40695;SDS011;40425;51.102;17.208;2023-02-12T12:44:32;20.40;;;5.53;;
40695;SDS011;40425;51.102;17.208;2023-02-12T12:49:52;14.60;;;4.53;;
40695;SDS011;40425;51.102;17.208;2023-02-12T13:10:32;15.23;;;4.80;;
40695;SDS011;40425;51.102;17.208;2023-02-12T13:21:05;18.63;;;4.77;;
40695;SDS011;40425;51.102;17.208;2023-02-12T13:26:35;19.83;;;4.30;;
40695;SDS011;40425;51.102;17.208;2023-02-12T13:32:02;10.80;;;3.37;;
40695;SDS011;40425;51.102;17.208;2023-02-12T13:38:04;8.97;;;2.63;;
40695;SDS011;40425;51.102;17.208;2023-02-12T13:42:46;13.93;;;3.60;;
40695;SDS011;40425;51.102;17.208;2023-02-12T13:59:29;7.60;;;2.17;;
40695;SDS011;40425;51.102;17.208;2023-02-12T14:04:32;9.73;;;2.97;;
40695;SDS011;40425;51.102;17.208;2023-02-12T14:09:40;11.07;;;2.47;;
40695;SDS011;40425;51.102;17.208;2023-02-12T14:14:52;12.03;;;2.10;;
40695;SDS011;40425;51.102;17.208;2023-02-12T14:20:24;8.03;;;2.00;;
40695;SDS011;40425;51.102;17.208;2023-02-12T14:25:37;18.30;;;3.30;;
40695;SDS011;40425;51.102;17.208;2023-02-12T14:30:42;16.70;;;3.67;;
40695;SDS011;40425;51.102;17.208;2023-02-12T14:35:44;13.83;;;4.17;;
40695;SDS011;40425;51.102;17.208;2023-02-12T14:40:49;16.43;;;3.17;;
40695;SDS011;40425;51.102;17.208;2023-02-12T14:45:52;11.23;;;2.57;;
40695;SDS011;40425;51.102;17.208;2023-02-12T14:50:54;12.80;;;2.20;;
40695;SDS011;40425;51.102;17.208;2023-02-12T14:55:55;9.77;;;1.50;;
40695;SDS011;40425;51.102;17.208;2023-02-12T15:00:58;11.73;;;1.50;;
40695;SDS011;40425;51.102;17.208;2023-02-12T15:21:59;11.83;;;1.43;;
40695;SDS011;40425;51.102;17.208;2023-02-12T15:27:00;10.60;;;1.40;;
40695;SDS011;40425;51.102;17.208;2023-02-12T15:32:03;13.27;;;3.27;;
40695;SDS011;40425;51.102;17.208;2023-02-12T15:37:05;7.03;;;1.70;;
40695;SDS011;40425;51.102;17.208;2023-02-12T15:42:28;12.17;;;2.63;;
40695;SDS011;40425;51.102;17.208;2023-02-12T15:47:30;21.73;;;9.00;;
40695;SDS011;40425;51.102;17.208;2023-02-12T15:52:34;10.23;;;2.33;;
40695;SDS011;40425;51.102;17.208;2023-02-12T15:57:38;15.93;;;5.23;;
40695;SDS011;40425;51.102;17.208;2023-02-12T16:02:40;19.33;;;5.97;;
40695;SDS011;40425;51.102;17.208;2023-02-12T16:07:41;10.30;;;2.13;;
40695;SDS011;40425;51.102;17.208;2023-02-12T16:12:43;30.03;;;12.50;;
40695;SDS011;40425;51.102;17.208;2023-02-12T16:17:46;12.27;;;4.77;;
40695;SDS011;40425;51.102;17.208;2023-02-12T16:22:48;15.90;;;5.27;;
40695;SDS011;40425;51.102;17.208;2023-02-12T16:28:04;13.63;;;4.77;;
40695;SDS011;40425;51.102;17.208;2023-02-12T16:43:43;23.70;;;3.57;;
40695;SDS011;40425;51.102;17.208;2023-02-12T16:48:49;41.07;;;15.30;;
40695;SDS011;40425;51.102;17.208;2023-02-12T16:53:52;45.80;;;17.70;;
40695;SDS011;40425;51.102;17.208;2023-02-12T16:58:57;32.27;;;11.97;;
40695;SDS011;40425;51.102;17.208;2023-02-12T17:04:00;23.17;;;9.47;;
40695;SDS011;40425;51.102;17.208;2023-02-12T17:09:04;24.00;;;8.57;;
40695;SDS011;40425;51.102;17.208;2023-02-12T17:14:05;28.90;;;9.93;;
40695;SDS011;40425;51.102;17.208;2023-02-12T17:19:09;24.07;;;9.00;;
40695;SDS011;40425;51.102;17.208;2023-02-12T17:29:15;26.20;;;9.40;;
40695;SDS011;40425;51.102;17.208;2023-02-12T17:34:17;26.07;;;10.40;;
40695;SDS011;40425;51.102;17.208;2023-02-12T17:39:18;28.43;;;11.77;;
40695;SDS011;40425;51.102;17.208;2023-02-12T17:44:19;27.53;;;11.47;;
40695;SDS011;40425;51.102;17.208;2023-02-12T17:49:20;24.87;;;10.87;;
40695;SDS011;40425;51.102;17.208;2023-02-12T17:54:21;22.87;;;9.73;;
40695;SDS011;40425;51.102;17.208;2023-02-12T17:59:22;26.93;;;10.87;;
40695;SDS011;40425;51.102;17.208;2023-02-12T18:04:23;38.03;;;16.17;;
40695;SDS011;40425;51.102;17.208;2023-02-12T18:09:24;26.80;;;11.37;;
40695;SDS011;40425;51.102;17.208;2023-02-12T18:14:25;21.53;;;12.47;;
40695;SDS011;40425;51.102;17.208;2023-02-12T18:19:26;32.23;;;11.90;;
40695;SDS011;40425;51.102;17.208;2023-02-12T18:24:28;32.27;;;15.00;;
40695;SDS011;40425;51.102;17.208;2023-02-12T18:29:30;29.40;;;13.23;;
40695;SDS011;40425;51.102;17.208;2023-02-12T18:34:31;28.73;;;11.70;;
40695;SDS011;40425;51.102;17.208;2023-02-12T18:39:32;29.63;;;13.23;;
40695;SDS011;40425;51.102;17.208;2023-02-12T18:44:33;27.70;;;12.07;;
40695;SDS011;40425;51.102;17.208;2023-02-12T18:49:34;24.33;;;11.10;;
40695;SDS011;40425;51.102;17.208;2023-02-12T18:54:35;27.33;;;12.13;;
40695;SDS011;40425;51.102;17.208;2023-02-12T18:59:36;25.67;;;11.23;;
40695;SDS011;40425;51.102;17.208;2023-02-12T19:04:37;26.43;;;10.80;;
40695;SDS011;40425;51.102;17.208;2023-02-12T19:09:38;27.87;;;12.87;;
40695;SDS011;40425;51.102;17.208;2023-02-12T19:14:39;25.60;;;12.80;;
40695;SDS011;40425;51.102;17.208;2023-02-12T19:19:40;32.87;;;12.00;;
40695;SDS011;40425;51.102;17.208;2023-02-12T19:24:41;31.87;;;11.00;;
40695;SDS011;40425;51.102;17.208;2023-02-12T19:29:42;31.00;;;12.33;;
40695;SDS011;40425;51.102;17.208;2023-02-12T19:34:43;29.10;;;11.10;;
40695;SDS011;40425;51.102;17.208;2023-02-12T19:39:45;30.60;;;12.43;;
40695;SDS011;40425;51.102;17.208;2023-02-12T19:44:46;29.17;;;12.67;;
40695;SDS011;40425;51.102;17.208;2023-02-12T19:49:47;31.57;;;13.20;;
40695;SDS011;40425;51.102;17.208;2023-02-12T19:54:48;30.73;;;12.97;;
40695;SDS011;40425;51.102;17.208;2023-02-12T19:59:48;34.70;;;13.47;;
40695;SDS011;40425;51.102;17.208;2023-02-12T20:04:49;39.87;;;14.83;;
40695;SDS011;40425;51.102;17.208;2023-02-12T20:09:50;39.13;;;14.43;;
40695;SDS011;40425;51.102;17.208;2023-02-12T20:14:52;34.13;;;13.57;;
40695;SDS011;40425;51.102;17.208;2023-02-12T20:19:54;33.70;;;15.77;;
40695;SDS011;40425;51.102;17.208;2023-02-12T20:24:55;42.70;;;15.33;;
40695;SDS011;40425;51.102;17.208;2023-02-12T20:29:56;34.93;;;14.83;;
40695;SDS011;40425;51.102;17.208;2023-02-12T20:34:57;40.77;;;16.83;;
40695;SDS011;40425;51.102;17.208;2023-02-12T20:39:58;42.67;;;16.60;;
40695;SDS011;40425;51.102;17.208;2023-02-12T20:44:59;43.70;;;17.27;;
40695;SDS011;40425;51.102;17.208;2023-02-12T20:49:59;39.63;;;16.70;;
40695;SDS011;40425;51.102;17.208;2023-02-12T20:55:01;42.43;;;17.77;;
40695;SDS011;40425;51.102;17.208;2023-02-12T21:00:02;38.40;;;16.70;;
40695;SDS011;40425;51.102;17.208;2023-02-12T21:05:04;46.10;;;16.30;;
40695;SDS011;40425;51.102;17.208;2023-02-12T21:10:05;37.70;;;16.43;;
40695;SDS011;40425;51.102;17.208;2023-02-12T21:15:07;38.50;;;16.57;;
40695;SDS011;40425;51.102;17.208;2023-02-12T21:20:08;36.53;;;15.83;;
40695;SDS011;40425;51.102;17.208;2023-02-12T21:25:09;37.70;;;16.23;;
40695;SDS011;40425;51.102;17.208;2023-02-12T21:30:10;45.03;;;15.93;;
40695;SDS011;40425;51.102;17.208;2023-02-12T21:35:11;36.37;;;16.07;;
40695;SDS011;40425;51.102;17.208;2023-02-12T21:40:12;41.00;;;17.13;;
40695;SDS011;40425;51.102;17.208;2023-02-12T21:45:12;39.37;;;18.07;;
40695;SDS011;40425;51.102;17.208;2023-02-12T21:50:13;38.93;;;16.27;;
40695;SDS011;40425;51.102;17.208;2023-02-12T21:55:14;40.70;;;17.23;;
40695;SDS011;40425;51.102;17.208;2023-02-12T22:00:15;41.23;;;15.97;;
40695;SDS011;40425;51.102;17.208;2023-02-12T22:05:16;39.43;;;16.37;;
40695;SDS011;40425;51.102;17.208;2023-02-12T22:10:17;38.40;;;15.77;;
40695;SDS011;40425;51.102;17.208;2023-02-12T22:15:18;36.83;;;15.40;;
40695;SDS011;40425;51.102;17.208;2023-02-12T22:20:19;39.53;;;16.07;;
40695;SDS011;40425;51.102;17.208;2023-02-12T22:25:20;44.40;;;17.43;;
40695;SDS011;40425;51.102;17.208;2023-02-12T22:30:21;47.33;;;19.00;;
40695;SDS011;40425;51.102;17.208;2023-02-12T22:35:22;40.37;;;17.13;;
40695;SDS011;40425;51.102;17.208;2023-02-12T22:40:23;41.43;;;17.30;;
40695;SDS011;40425;51.102;17.208;2023-02-12T22:45:24;47.60;;;18.23;;
40695;SDS011;40425;51.102;17.208;2023-02-12T22:50:25;38.63;;;15.60;;
40695;SDS011;40425;51.102;17.208;2023-02-12T22:55:26;39.23;;;14.43;;
40695;SDS011;40425;51.102;17.208;2023-02-12T23:00:26;30.60;;;15.70;;
40695;SDS011;40425;51.102;17.208;2023-02-12T23:05:27;29.10;;;14.07;;
40695;SDS011;40425;51.102;17.208;2023-02-12T23:10:28;33.47;;;14.13;;
40695;SDS011;40425;51.102;17.208;2023-02-12T23:15:30;31.33;;;13.87;;
40695;SDS011;40425;51.102;17.208;2023-02-12T23:20:31;36.80;;;14.93;;
40695;SDS011;40425;51.102;17.208;2023-02-12T23:25:31;32.70;;;14.03;;
40695;SDS011;40425;51.102;17.208;2023-02-12T23:30:32;31.70;;;14.27;;
40695;SDS011;40425;51.102;17.208;2023-02-12T23:35:33;30.17;;;12.93;;
40695;SDS011;40425;51.102;17.208;2023-02-12T23:40:34;33.97;;;12.50;;
40695;SDS011;40425;51.102;17.208;2023-02-12T23:45:35;30.17;;;11.00;;
40695;SDS011;40425;51.102;17.208;2023-02-12T23:50:36;35.57;;;12.70;;
40695;SDS011;40425;51.102;17.208;2023-02-12T23:55:37;26.50;;;11.80;;
